createdAt,value
2023-04-13T00:00:12.965Z,13.04
2023-04-13T00:02:39.991Z,13.02
2023-04-13T00:05:08.346Z,12.95
2023-04-13T00:07:35.262Z,13.14
2023-04-13T00:10:03.551Z,13.17
2023-04-13T00:12:30.966Z,12.62
2023-04-13T00:14:57.769Z,13.25
2023-04-13T00:17:26.548Z,13.26
2023-04-13T00:19:54.035Z,13.10
2023-04-13T00:22:20.800Z,13.31
2023-04-13T00:24:48.084Z,13.33
2023-04-13T00:27:15.000Z,13.09
2023-04-13T00:29:41.933Z,13.15
2023-04-13T00:32:08.680Z,13.27
2023-04-13T00:34:36.250Z,13.04
2023-04-13T00:37:04.092Z,13.02
2023-04-13T00:39:31.601Z,12.90
2023-04-13T00:42:02.444Z,13.13
2023-04-13T00:44:30.907Z,13.09
2023-04-13T00:46:57.723Z,13.05
2023-04-13T00:49:24.677Z,12.98
2023-04-13T00:51:51.515Z,12.83
2023-04-13T00:54:18.649Z,12.94
2023-04-13T00:56:45.517Z,12.89
2023-04-13T00:59:13.002Z,12.84
2023-04-13T01:01:46.821Z,12.73
2023-04-13T01:04:14.204Z,12.75
2023-04-13T01:06:45.215Z,12.45
2023-04-13T01:09:15.501Z,11.97
2023-04-13T01:11:54.254Z,12.61
2023-04-13T01:14:25.022Z,12.43
2023-04-13T01:16:57.572Z,12.50
2023-04-13T01:19:44.583Z,12.48
2023-04-13T01:22:14.599Z,12.41
2023-04-13T01:24:53.719Z,12.49
2023-04-13T01:27:55.499Z,12.45
2023-04-13T01:30:23.866Z,12.16
2023-04-13T01:32:51.799Z,12.41
2023-04-13T01:35:22.914Z,12.44
2023-04-13T01:37:52.944Z,12.09
2023-04-13T01:40:21.546Z,12.40
2023-04-13T01:42:48.311Z,12.44
2023-04-13T01:45:25.170Z,12.44
2023-04-13T01:48:31.744Z,12.41
2023-04-13T01:51:01.621Z,12.37
2023-04-13T01:53:28.983Z,12.39
2023-04-13T01:55:55.959Z,12.32
2023-04-13T01:58:23.680Z,12.41
2023-04-13T02:00:50.770Z,12.23
2023-04-13T02:03:18.402Z,12.41
2023-04-13T02:05:46.265Z,12.21
2023-04-13T02:08:14.030Z,12.35
2023-04-13T02:10:42.590Z,12.33
2023-04-13T02:13:12.096Z,12.53
2023-04-13T02:15:38.968Z,12.43
2023-04-13T02:18:06.282Z,12.62
2023-04-13T02:20:40.464Z,12.68
2023-04-13T02:23:09.171Z,12.50
2023-04-13T02:25:36.423Z,12.75
2023-04-13T02:28:03.471Z,12.18
2023-04-13T02:30:30.359Z,12.64
2023-04-13T02:32:57.405Z,12.69
2023-04-13T02:35:25.909Z,12.43
2023-04-13T02:37:52.665Z,12.73
2023-04-13T02:40:21.131Z,12.73
2023-04-13T02:42:48.538Z,12.53
2023-04-13T02:45:18.133Z,12.56
2023-04-13T02:47:45.243Z,12.75
2023-04-13T02:50:12.815Z,12.74
2023-04-13T02:52:39.583Z,12.72
2023-04-13T02:55:08.407Z,12.69
2023-04-13T02:57:35.163Z,12.67
2023-04-13T03:00:01.917Z,12.34
2023-04-13T03:02:30.318Z,12.53
2023-04-13T03:04:57.552Z,12.34
2023-04-13T03:07:24.830Z,11.99
2023-04-13T03:09:53.237Z,11.87
2023-04-13T03:12:20.383Z,11.91
2023-04-13T03:14:47.254Z,11.24
2023-04-13T03:17:14.979Z,11.68
2023-04-13T03:19:42.068Z,11.58
2023-04-13T03:22:10.230Z,11.52
2023-04-13T03:24:37.476Z,11.49
2023-04-13T03:27:04.343Z,11.48
2023-04-13T03:29:32.103Z,11.36
2023-04-13T03:31:58.932Z,11.17
2023-04-13T03:34:25.727Z,11.35
2023-04-13T03:36:53.239Z,11.25
2023-04-13T03:39:20.004Z,11.31
2023-04-13T03:41:47.186Z,11.29
2023-04-13T03:44:14.145Z,11.27
2023-04-13T03:46:41.544Z,11.15
2023-04-13T03:49:11.454Z,11.07
2023-04-13T03:51:38.197Z,11.24
2023-04-13T03:54:05.086Z,10.98
2023-04-13T03:56:31.820Z,11.10
2023-04-13T03:58:59.318Z,10.93
2023-04-13T04:01:27.209Z,11.07
2023-04-13T04:03:57.242Z,11.03
2023-04-13T04:06:24.803Z,10.97
2023-04-13T04:08:51.629Z,10.76
2023-04-13T04:11:18.498Z,11.00
2023-04-13T04:13:45.691Z,10.91
2023-04-13T04:16:12.782Z,10.96
2023-04-13T04:18:39.549Z,10.89
2023-04-13T04:21:07.246Z,10.61
2023-04-13T04:23:37.920Z,10.82
2023-04-13T04:26:05.253Z,10.80
2023-04-13T04:28:32.400Z,10.71
2023-04-13T04:31:01.415Z,10.85
2023-04-13T04:33:28.272Z,10.90
2023-04-13T04:35:56.161Z,10.92
2023-04-13T04:38:23.666Z,10.95
2023-04-13T04:40:50.616Z,10.98
2023-04-13T04:43:17.828Z,10.83
2023-04-13T04:45:45.625Z,10.81
2023-04-13T04:48:15.347Z,10.88
2023-04-13T04:50:45.294Z,10.55
2023-04-13T04:53:12.438Z,10.63
2023-04-13T04:55:39.527Z,10.85
2023-04-13T04:58:06.937Z,10.62
2023-04-13T05:00:33.880Z,10.81
2023-04-13T05:03:01.811Z,10.63
2023-04-13T05:05:30.781Z,10.57
2023-04-13T05:07:57.993Z,10.72
2023-04-13T05:10:27.147Z,10.52
2023-04-13T05:12:54.356Z,10.49
2023-04-13T05:15:21.295Z,10.59
2023-04-13T05:17:51.236Z,10.58
2023-04-13T05:20:19.572Z,10.60
2023-04-13T05:22:46.421Z,10.62
2023-04-13T05:25:14.847Z,10.59
2023-04-13T05:27:41.797Z,10.51
2023-04-13T05:30:09.740Z,10.41
2023-04-13T05:32:36.830Z,10.34
2023-04-13T05:35:04.604Z,10.33
2023-04-13T05:37:32.106Z,10.31
2023-04-13T05:39:59.158Z,10.18
2023-04-13T05:42:25.994Z,10.16
2023-04-13T05:44:52.805Z,9.85
2023-04-13T05:47:22.154Z,10.00
2023-04-13T05:49:48.972Z,10.04
2023-04-13T05:52:15.887Z,10.06
2023-04-13T05:54:42.805Z,9.48
2023-04-13T05:57:09.628Z,10.04
2023-04-13T05:59:37.034Z,9.89
2023-04-13T06:02:04.059Z,9.78
2023-04-13T06:04:31.631Z,9.18
2023-04-13T06:06:59.286Z,9.64
2023-04-13T06:09:26.188Z,9.83
2023-04-13T06:11:54.465Z,9.93
2023-04-13T06:14:22.308Z,10.03
2023-04-13T06:16:49.222Z,10.13
2023-04-13T06:19:16.076Z,10.13
2023-04-13T06:21:42.950Z,10.16
2023-04-13T06:24:09.914Z,9.94
2023-04-13T06:26:37.551Z,9.72
2023-04-13T06:29:04.509Z,9.38
2023-04-13T06:31:31.946Z,9.79
2023-04-13T06:33:58.721Z,9.64
2023-04-13T06:36:25.860Z,9.66
2023-04-13T06:38:52.636Z,9.76
2023-04-13T06:41:19.461Z,9.83
2023-04-13T06:43:46.725Z,9.85
2023-04-13T06:46:14.759Z,9.79
2023-04-13T06:48:41.824Z,9.83
2023-04-13T06:51:08.753Z,9.58
2023-04-13T06:53:35.820Z,9.48
2023-04-13T06:56:02.582Z,9.93
2023-04-13T06:58:29.533Z,10.01
2023-04-13T07:00:56.357Z,10.06
2023-04-13T07:03:23.332Z,10.14
2023-04-13T07:05:50.505Z,10.12
2023-04-13T07:08:19.423Z,10.31
2023-04-13T07:10:46.798Z,10.43
2023-04-13T07:13:13.883Z,10.71
2023-04-13T07:15:40.823Z,10.76
2023-04-13T07:18:07.671Z,11.02
2023-04-13T07:20:35.873Z,11.09
2023-04-13T07:23:02.743Z,11.24
2023-04-13T07:25:29.509Z,11.49
2023-04-13T07:27:56.556Z,11.67
2023-04-13T07:30:23.421Z,11.73
2023-04-13T07:32:50.255Z,12.03
2023-04-13T07:35:17.159Z,12.02
2023-04-13T07:37:44.782Z,12.07
2023-04-13T07:40:12.184Z,12.57
2023-04-13T07:42:39.630Z,12.92
2023-04-13T07:45:07.535Z,13.22
2023-04-13T07:47:34.345Z,13.33
2023-04-13T07:50:01.226Z,13.24
2023-04-13T07:52:28.875Z,13.11
2023-04-13T07:54:55.692Z,13.07
2023-04-13T07:57:22.483Z,13.25
2023-04-13T07:59:49.533Z,13.29
2023-04-13T08:02:18.139Z,13.00
2023-04-13T08:04:45.043Z,13.25
2023-04-13T08:07:11.995Z,13.20
2023-04-13T08:09:40.307Z,13.02
2023-04-13T08:12:08.371Z,13.23
2023-04-13T08:14:35.623Z,13.14
2023-04-13T08:17:04.435Z,13.35
2023-04-13T08:19:31.220Z,13.16
2023-04-13T08:21:58.711Z,13.11
2023-04-13T08:24:26.020Z,13.23
2023-04-13T08:26:55.230Z,13.13
2023-04-13T08:29:24.319Z,12.94
2023-04-13T08:31:51.579Z,13.01
2023-04-13T08:34:18.749Z,12.84
2023-04-13T08:36:48.351Z,12.99
2023-04-13T08:39:15.227Z,13.26
2023-04-13T08:41:45.937Z,13.33
2023-04-13T08:44:13.755Z,13.33
2023-04-13T08:46:42.514Z,13.75
2023-04-13T08:49:10.826Z,14.34
2023-04-13T08:51:38.210Z,14.95
2023-04-13T08:54:05.631Z,15.36
2023-04-13T08:56:44.393Z,15.86
2023-04-13T08:59:13.113Z,16.14
2023-04-13T09:01:39.950Z,16.60
2023-04-13T09:04:11.853Z,17.17
2023-04-13T09:06:43.355Z,17.45
2023-04-13T09:09:16.502Z,17.72
2023-04-13T09:11:46.168Z,17.82
2023-04-13T09:14:14.076Z,18.19
2023-04-13T09:16:44.042Z,18.46
2023-04-13T09:19:13.100Z,18.66
2023-04-13T09:21:45.029Z,18.99
2023-04-13T09:24:13.011Z,19.43
2023-04-13T09:26:46.792Z,19.65
2023-04-13T09:29:14.998Z,19.82
2023-04-13T09:31:44.412Z,19.74
2023-04-13T09:34:12.112Z,19.89
2023-04-13T09:36:49.498Z,20.13
2023-04-13T09:39:29.905Z,20.13
2023-04-13T09:41:58.374Z,20.44
2023-04-13T09:44:27.628Z,20.50
2023-04-13T09:47:01.413Z,20.44
2023-04-13T09:49:41.225Z,20.22
2023-04-13T09:52:19.061Z,20.08
2023-04-13T09:54:50.081Z,19.77
2023-04-13T09:57:30.902Z,19.21
2023-04-13T10:00:00.932Z,19.00
2023-04-13T10:02:28.385Z,18.09
2023-04-13T10:04:56.078Z,18.36
2023-04-13T10:07:26.908Z,18.66
2023-04-13T10:09:54.520Z,18.83
2023-04-13T10:12:21.359Z,18.79
2023-04-13T10:14:48.953Z,19.44
2023-04-13T10:17:40.254Z,19.97
2023-04-13T10:20:10.453Z,20.25
2023-04-13T10:22:37.905Z,20.71
2023-04-13T10:25:07.256Z,21.16
2023-04-13T10:27:36.583Z,21.45
2023-04-13T10:30:13.231Z,21.74
2023-04-13T10:32:40.084Z,22.01
2023-04-13T10:35:13.640Z,22.34
2023-04-13T10:37:41.766Z,22.37
2023-04-13T10:40:13.517Z,22.58
2023-04-13T10:42:52.448Z,22.46
2023-04-13T10:45:24.288Z,22.51
2023-04-13T10:47:51.280Z,22.32
2023-04-13T10:50:22.851Z,22.05
2023-04-13T10:53:05.887Z,21.60
2023-04-13T10:55:33.304Z,20.80
2023-04-13T10:58:00.690Z,20.66
2023-04-13T11:00:42.470Z,20.69
2023-04-13T11:03:15.720Z,20.82
2023-04-13T11:05:43.819Z,20.70
2023-04-13T11:08:19.063Z,20.67
2023-04-13T11:10:56.213Z,20.93
2023-04-13T11:13:25.535Z,21.04
2023-04-13T11:15:52.154Z,21.45
2023-04-13T11:18:28.446Z,21.59
2023-04-13T11:20:55.421Z,21.53
2023-04-13T11:23:24.234Z,21.89
2023-04-13T11:25:55.175Z,21.95
2023-04-13T11:28:23.047Z,22.03
2023-04-13T11:30:58.749Z,22.02
2023-04-13T11:33:30.154Z,21.98
2023-04-13T11:35:58.956Z,21.78
2023-04-13T11:38:25.859Z,21.63
2023-04-13T11:40:58.852Z,21.21
2023-04-13T11:43:28.898Z,20.80
2023-04-13T11:45:55.680Z,20.44
2023-04-13T11:48:22.478Z,19.85
2023-04-13T11:50:49.334Z,19.29
2023-04-13T11:53:16.862Z,19.14
2023-04-13T11:55:52.783Z,18.84
2023-04-13T11:58:21.098Z,18.63
2023-04-13T12:00:48.404Z,18.52
2023-04-13T12:05:48.061Z,18.13
2023-04-13T12:08:25.500Z,18.35
2023-04-13T12:19:09.862Z,20.35
2023-04-13T12:21:37.097Z,20.23
2023-04-13T12:24:05.777Z,20.21
2023-04-13T12:27:16.960Z,20.52
2023-04-13T12:29:28.376Z,21.15
2023-04-13T12:32:03.963Z,22.48
2023-04-13T12:34:31.037Z,22.70
2023-04-13T12:36:58.242Z,22.79
2023-04-13T12:39:25.027Z,22.96
2023-04-13T12:41:52.649Z,23.04
2023-04-13T12:44:19.404Z,22.91
2023-04-13T12:46:46.653Z,22.49
2023-04-13T12:49:13.482Z,22.23
2023-04-13T12:51:40.499Z,21.77
2023-04-13T12:54:13.305Z,21.41
2023-04-13T12:56:41.007Z,21.40
2023-04-13T12:59:07.933Z,21.46
2023-04-13T13:01:37.866Z,21.76
2023-04-13T13:04:05.605Z,22.23
2023-04-13T13:06:34.279Z,22.44
2023-04-13T13:09:01.438Z,22.47
2023-04-13T13:11:28.694Z,22.54
2023-04-13T13:13:55.900Z,22.28
2023-04-13T13:16:22.686Z,21.97
2023-04-13T13:18:51.541Z,21.64
2023-04-13T13:21:18.759Z,21.30
2023-04-13T13:23:46.136Z,20.99
2023-04-13T13:28:42.913Z,20.38
2023-04-13T13:31:09.722Z,20.08
2023-04-13T13:33:36.818Z,19.77
2023-04-13T13:36:04.954Z,19.77
2023-04-13T13:38:31.693Z,19.72
2023-04-13T13:40:58.535Z,19.46
2023-04-13T13:43:25.689Z,19.50
2023-04-13T13:45:53.973Z,19.73
2023-04-13T13:48:21.925Z,19.54
2023-04-13T13:50:49.263Z,19.50
2023-04-13T13:53:16.091Z,19.57
2023-04-13T13:55:42.917Z,19.43
2023-04-13T13:58:09.869Z,18.76
2023-04-13T14:00:36.939Z,19.18
2023-04-13T14:03:04.021Z,19.13
2023-04-13T14:05:30.931Z,18.98
2023-04-13T14:07:57.654Z,18.88
2023-04-13T14:10:24.574Z,18.78
2023-04-13T14:12:52.966Z,18.13
2023-04-13T14:15:19.696Z,18.50
2023-04-13T14:17:55.555Z,18.64
2023-04-13T14:20:39.261Z,18.74
2023-04-13T14:23:06.902Z,18.61
2023-04-13T14:25:33.657Z,18.62
2023-04-13T14:28:01.064Z,18.42
2023-04-13T14:30:28.572Z,18.21
2023-04-13T14:32:56.475Z,18.36
2023-04-13T14:35:24.236Z,18.26
2023-04-13T14:37:51.538Z,18.28
2023-04-13T14:40:22.111Z,18.26
2023-04-13T14:42:50.980Z,18.19
2023-04-13T14:45:18.111Z,17.96
2023-04-13T14:47:44.895Z,18.06
2023-04-13T14:50:12.232Z,17.77
2023-04-13T14:52:40.027Z,17.76
2023-04-13T14:55:07.157Z,18.11
2023-04-13T14:57:33.867Z,18.05
2023-04-13T15:00:00.700Z,18.24
2023-04-13T15:02:28.420Z,18.31
2023-04-13T15:04:56.070Z,18.37
2023-04-13T15:07:30.063Z,18.41
2023-04-13T15:09:59.123Z,18.19
2023-04-13T15:12:25.947Z,18.45
2023-04-13T15:14:52.932Z,18.15
2023-04-13T15:17:21.175Z,18.44
2023-04-13T15:19:48.033Z,18.41
2023-04-13T15:22:14.907Z,18.27
2023-04-13T15:24:41.623Z,18.05
2023-04-13T15:27:08.401Z,18.23
2023-04-13T15:29:35.356Z,18.03
2023-04-13T15:32:02.409Z,18.18
2023-04-13T15:34:29.251Z,17.86
2023-04-13T15:36:57.160Z,18.10
2023-04-13T15:39:23.897Z,18.06
2023-04-13T15:41:52.797Z,17.85
2023-04-13T15:44:19.584Z,18.04
2023-04-13T15:46:48.207Z,17.97
2023-04-13T15:49:15.150Z,17.87
2023-04-13T15:51:42.529Z,17.85
2023-04-13T15:54:09.356Z,17.72
2023-04-13T15:56:36.546Z,17.69
2023-04-13T15:59:03.270Z,17.60
2023-04-13T16:01:45.686Z,17.39
2023-04-13T16:04:12.739Z,17.46
2023-04-13T16:06:39.976Z,17.38
2023-04-13T16:09:09.920Z,17.38
2023-04-13T16:11:39.994Z,17.16
2023-04-13T16:14:09.588Z,17.10
2023-04-13T16:16:46.870Z,17.43
2023-04-13T16:19:14.144Z,17.45
2023-04-13T16:21:43.655Z,17.33
2023-04-13T16:24:10.789Z,17.44
2023-04-13T16:26:38.045Z,17.55
2023-04-13T16:29:05.266Z,17.48
2023-04-13T16:31:32.127Z,17.37
2023-04-13T16:33:59.121Z,17.67
2023-04-13T16:36:26.064Z,17.72
2023-04-13T16:38:53.165Z,17.57
2023-04-13T16:41:20.048Z,17.84
2023-04-13T16:43:46.886Z,17.58
2023-04-13T16:46:17.122Z,17.70
2023-04-13T16:48:44.059Z,17.72
2023-04-13T16:51:10.868Z,17.92
2023-04-13T16:53:38.319Z,17.60
2023-04-13T16:56:05.516Z,17.80
2023-04-13T16:58:32.992Z,17.73
2023-04-13T17:00:59.908Z,17.55
2023-04-13T17:03:27.135Z,17.47
2023-04-13T17:05:55.071Z,17.45
2023-04-13T17:08:21.893Z,17.67
2023-04-13T17:10:51.692Z,17.62
2023-04-13T17:13:18.472Z,17.64
2023-04-13T17:15:45.215Z,17.53
2023-04-13T17:18:12.449Z,17.50
2023-04-13T17:20:39.889Z,17.44
2023-04-13T17:23:06.687Z,17.57
2023-04-13T17:25:35.125Z,17.53
2023-04-13T17:28:02.166Z,17.26
2023-04-13T17:30:29.073Z,17.32
2023-04-13T17:32:56.157Z,17.46
2023-04-13T17:35:23.068Z,17.08
2023-04-13T17:37:49.902Z,17.42
2023-04-13T17:40:17.166Z,17.09
2023-04-13T17:42:44.329Z,16.44
2023-04-13T17:45:11.714Z,17.28
2023-04-13T17:47:38.689Z,17.17
2023-04-13T17:50:06.030Z,17.14
2023-04-13T17:52:32.851Z,17.09
2023-04-13T17:54:59.709Z,17.01
2023-04-13T17:57:26.655Z,16.94
2023-04-13T17:59:53.401Z,16.90
2023-04-13T18:02:20.732Z,16.68
2023-04-13T18:04:48.446Z,16.69
2023-04-13T18:07:15.592Z,16.55
2023-04-13T18:09:42.481Z,16.48
2023-04-13T18:12:09.216Z,16.38
2023-04-13T18:14:35.974Z,16.29
2023-04-13T18:17:02.883Z,16.41
2023-04-13T18:19:32.389Z,16.46
2023-04-13T18:21:59.239Z,16.38
2023-04-13T18:24:26.368Z,16.35
2023-04-13T18:26:53.120Z,16.37
2023-04-13T18:29:19.965Z,16.34
2023-04-13T18:31:46.951Z,16.25
2023-04-13T18:34:13.980Z,16.29
2023-04-13T18:36:41.912Z,16.30
2023-04-13T18:39:08.939Z,16.32
2023-04-13T18:41:36.013Z,16.30
2023-04-13T18:44:03.486Z,16.26
2023-04-13T18:46:30.492Z,16.21
2023-04-13T18:48:57.439Z,16.05
2023-04-13T18:51:24.184Z,16.13
2023-04-13T18:53:51.011Z,16.07
2023-04-13T18:56:17.824Z,16.04
2023-04-13T18:58:45.083Z,16.00
2023-04-13T19:01:16.762Z,15.97
2023-04-13T19:03:43.874Z,15.74
2023-04-13T19:06:11.391Z,15.87
2023-04-13T19:08:38.913Z,15.76
2023-04-13T19:11:05.725Z,15.66
2023-04-13T19:13:32.497Z,15.75
2023-04-13T19:15:59.419Z,15.61
2023-04-13T19:18:26.182Z,15.62
2023-04-13T19:20:53.073Z,15.65
2023-04-13T19:23:19.861Z,15.24
2023-04-13T19:25:47.733Z,15.44
2023-04-13T19:28:14.533Z,15.64
2023-04-13T19:30:41.515Z,15.64
2023-04-13T19:33:08.237Z,15.52
2023-04-13T19:35:35.110Z,15.68
2023-04-13T19:38:02.052Z,15.57
2023-04-13T19:40:29.234Z,15.56
2023-04-13T19:42:56.179Z,15.72
2023-04-13T19:45:24.332Z,15.57
2023-04-13T19:47:53.016Z,15.76
2023-04-13T19:50:19.842Z,15.77
2023-04-13T19:52:47.684Z,15.78
2023-04-13T19:55:14.457Z,15.67
2023-04-13T19:57:42.948Z,15.81
2023-04-13T20:00:17.465Z,15.80
2023-04-13T20:02:45.378Z,15.80
2023-04-13T20:05:12.508Z,15.79
2023-04-13T20:07:39.397Z,15.79
2023-04-13T20:10:07.826Z,15.61
2023-04-13T20:12:34.652Z,15.68
2023-04-13T20:15:01.530Z,15.76
2023-04-13T20:17:28.317Z,15.74
2023-04-13T20:19:55.502Z,15.72
2023-04-13T20:22:22.423Z,15.69
2023-04-13T20:24:49.203Z,15.65
2023-04-13T20:27:16.048Z,15.63
2023-04-13T20:29:42.940Z,15.60
2023-04-13T20:32:09.770Z,15.50
2023-04-13T20:34:36.652Z,15.56
2023-04-13T20:37:03.484Z,15.53
2023-04-13T20:39:30.635Z,15.49
2023-04-13T20:41:57.940Z,15.20
2023-04-13T20:44:25.028Z,15.31
2023-04-13T20:46:55.185Z,15.31
2023-04-13T20:49:25.736Z,15.35
2023-04-13T20:51:56.110Z,15.26
2023-04-13T20:54:23.477Z,15.05
2023-04-13T20:56:50.644Z,15.31
2023-04-13T20:59:18.352Z,15.31
2023-04-13T21:01:45.722Z,15.30
2023-04-13T21:04:12.997Z,15.02
2023-04-13T21:06:40.675Z,15.13
2023-04-13T21:09:08.706Z,15.31
2023-04-13T21:11:35.884Z,14.77
2023-04-13T21:14:03.078Z,15.30
2023-04-13T21:16:30.181Z,15.29
2023-04-13T21:18:57.320Z,15.27
2023-04-13T21:21:25.126Z,15.24
2023-04-13T21:23:52.726Z,15.21
2023-04-13T21:26:20.401Z,15.15
2023-04-13T21:28:47.311Z,15.16
2023-04-13T21:31:14.255Z,15.05
2023-04-13T21:33:41.338Z,15.00
2023-04-13T21:38:40.011Z,15.09
2023-04-13T21:41:07.335Z,14.85
2023-04-13T21:43:34.474Z,14.99
2023-04-13T21:46:01.428Z,14.79
2023-04-13T21:48:28.385Z,15.14
2023-04-13T21:50:55.310Z,15.15
2023-04-13T21:53:22.157Z,15.16
2023-04-13T21:55:49.205Z,15.13
2023-04-13T21:58:16.161Z,14.90
2023-04-13T22:00:43.064Z,15.17
2023-04-13T22:03:12.453Z,15.18
2023-04-13T22:05:40.674Z,15.01
2023-04-13T22:08:07.577Z,15.18
2023-04-13T22:10:34.517Z,14.76
2023-04-13T22:13:01.348Z,14.92
2023-04-13T22:15:28.252Z,15.04
2023-04-13T22:17:55.236Z,15.06
2023-04-13T22:20:22.036Z,14.80
2023-04-13T22:22:48.789Z,15.20
2023-04-13T22:25:15.801Z,15.22
2023-04-13T22:27:42.555Z,15.16
2023-04-13T22:30:09.806Z,14.96
2023-04-13T22:32:36.855Z,15.27
2023-04-13T22:35:04.853Z,15.16
2023-04-13T22:37:31.794Z,15.03
2023-04-13T22:40:01.204Z,15.08
2023-04-13T22:42:28.439Z,15.16
2023-04-13T22:44:55.191Z,15.31
2023-04-13T22:47:22.027Z,15.25
2023-04-13T22:49:49.358Z,15.34
2023-04-13T22:52:19.454Z,15.36
2023-04-13T22:54:46.943Z,15.34
2023-04-13T22:57:13.686Z,15.09
2023-04-13T22:59:40.970Z,15.18
2023-04-13T23:02:07.865Z,15.12
2023-04-13T23:04:35.026Z,15.40
2023-04-13T23:07:01.939Z,15.40
2023-04-13T23:09:28.959Z,15.38
2023-04-13T23:11:55.857Z,15.38
2023-04-13T23:14:23.943Z,14.67
2023-04-13T23:16:50.832Z,15.21
2023-04-13T23:19:18.787Z,15.12
2023-04-13T23:21:48.788Z,15.36
2023-04-13T23:24:15.602Z,15.36
2023-04-13T23:26:42.494Z,15.39
2023-04-13T23:29:09.424Z,15.35
2023-04-13T23:31:36.210Z,15.40
2023-04-13T23:34:03.024Z,15.34
2023-04-13T23:36:29.880Z,15.40
2023-04-13T23:38:56.601Z,15.41
2023-04-13T23:41:23.707Z,15.24
2023-04-13T23:43:51.878Z,15.19
2023-04-13T23:46:18.737Z,15.14
2023-04-13T23:48:45.582Z,15.40
2023-04-13T23:51:12.440Z,15.37
2023-04-13T23:53:39.157Z,15.36
2023-04-13T23:56:06.678Z,15.13
2023-04-13T23:58:33.570Z,15.21
